Sea Jay — WDE8232 — position and weather

sailwx.info

Track history (hours):
 
Tides and Currents Weather Stations Pressure Air Temp Water Temp Dewpoint Dewpoint Depression Visibility Wind Speed Wind Dir Waves Ship Positions

Sea Jay

Owner: Matheson, James K, Everett, WA. More information available from US FCC via Universal Licensing System and Coast Guard Vessel Documentation Center.

Last reported at 2015-May-05 18:12 UTC. Time now 2015-Jul-08 00:02 UTC.
Position N 51°06' W 127°43'.
Warning: this ship's position is months out of date.

Length 21 m.

Type: Pleasure craft. MMSI: 367403070.

Date/timePositionNaut miles runAvg speedWind from/ knotsBaromVisibWave heightAir tempDewpointWater temp
2015-May-05 18:12N 51°06' W 127°43'711.2
2015-May-05 17:33N 51°01' W 127°36'1211.6
2015-May-05 16:33N 50°54' W 127°21'2 2.0
2015-May-05 15:26N 50°54' W 127°17'0 0.0
2015-May-05 14:32N 50°54' W 127°17'0 0.0
2015-May-05 13:32N 50°54' W 127°17'0 0.0
2015-May-05 12:20N 50°54' W 127°17'0 0.0
2015-May-05 11:32N 50°54' W 127°17'0 0.0
2015-May-05 10:26N 50°54' W 127°17'0 0.0
2015-May-05 09:26N 50°54' W 127°17'0 0.0
2015-May-05 08:32N 50°54' W 127°17'0 0.0
2015-May-05 07:32N 50°54' W 127°17'0 0.0
2015-May-05 06:26N 50°54' W 127°17'0 0.0
2015-May-05 05:26N 50°54' W 127°17'0 0.0
2015-May-05 03:20N 50°54' W 127°17'0 0.0
2015-May-05 01:32N 50°54' W 127°17'0 0.0
2015-May-05 00:20N 50°54' W 127°17'0 0.0
2015-May-04 23:20N 50°54' W 127°17'0 0.0
2015-May-04 22:29N 50°54' W 127°17'0 0.0
2015-May-04 21:29N 50°54' W 127°17'82 4.1
2015-May-04 01:28N 50°16' W 125°24'9 9.8
2015-May-04 00:33N 50°07' W 125°21'7 6.5
2015-May-03 23:33N 50°02' W 125°14'0 0.3
2015-May-03 22:31N 50°02' W 125°15'0 0.0
2015-May-03 21:31N 50°02' W 125°15'2 1.8
2015-May-03 20:33N 50°01' W 125°12'5210.0
2015-May-03 15:19N 49°24' W 124°16'64 1.5
2015-May-01 22:06N 48°36' W 123°13'611.0
2015-May-01 21:33N 48°30' W 123°09'41 9.4
2015-May-01 17:09N 47°57' W 122°33'711.2
2015-May-01 16:33N 47°54' W 122°24'10 9.2
2015-May-01 15:30N 48°00' W 122°13'0 0.1
2015-May-01 13:31N 48°00' W 122°13'0 0.0
2015-May-01 12:25N 48°00' W 122°13'0 0.0
2015-May-01 10:31N 48°00' W 122°13'0 0.0
2015-May-01 09:13N 48°00' W 122°13'0 0.0
2015-May-01 08:25N 48°00' W 122°13'0 0.0
2015-May-01 07:13N 48°00' W 122°13'0 0.0
2015-May-01 06:25N 48°00' W 122°13'0 0.0
2015-May-01 04:31N 48°00' W 122°13'0 0.0
2015-May-01 03:25N 48°00' W 122°13'0 0.0
2015-May-01 02:25N 48°00' W 122°13'0 0.0
2015-May-01 01:31N 48°00' W 122°13'0 0.0
2015-May-01 00:25N 48°00' W 122°13'0 0.0
2015-Apr-30 23:07N 48°00' W 122°13'0 0.0
2015-Apr-30 22:13N 48°00' W 122°13'0 0.0
2015-Apr-30 21:25N 48°00' W 122°13'0 0.0
2015-Apr-30 20:28N 48°00' W 122°13'0 0.0
2015-Apr-30 19:31N 48°00' W 122°13'0 0.0
2015-Apr-30 18:28N 48°00' W 122°13'0 0.0
2015-Apr-30 17:04N 48°00' W 122°13'0 0.0
2015-Apr-30 16:33N 48°00' W 122°13'0 0.0
2015-Apr-30 15:11N 48°00' W 122°13'0 0.0
2015-Apr-30 14:17N 48°00' W 122°13'0 0.0
2015-Apr-30 13:29N 48°00' W 122°13'0 0.0
2015-Apr-30 12:17N 48°00' W 122°13'0 0.0
2015-Apr-30 10:17N 48°00' W 122°13'0 0.0
2015-Apr-30 09:29N 48°00' W 122°13'0 0.0
2015-Apr-30 08:23N 48°00' W 122°13'0 0.0
2015-Apr-30 06:29N 48°00' W 122°13'0 0.0
2015-Apr-30 04:17N 48°00' W 122°13'0 0.0
2015-Apr-30 03:29N 48°00' W 122°13'0 0.0
2015-Apr-30 02:11N 48°00' W 122°13'0 0.0
2015-Apr-30 01:29N 48°00' W 122°13'0 0.0
2015-Apr-30 00:23N 48°00' W 122°13'0 0.0
2015-Apr-29 23:26N 48°00' W 122°13'0 0.0
2015-Apr-29 16:26N 48°00' W 122°13'0 0.0
2015-Apr-29 15:20N 48°00' W 122°13'0 0.0
2015-Apr-29 14:29N 48°00' W 122°13'0 0.0
2015-Apr-29 13:08N 48°00' W 122°13'0 0.0
2015-Apr-29 12:23N 48°00' W 122°13'0 0.0
2015-Apr-29 11:29N 48°00' W 122°13'0 0.0
2015-Apr-29 10:26N 48°00' W 122°13'0 0.0
2015-Apr-29 09:29N 48°00' W 122°13'0 0.0
2015-Apr-29 08:14N 48°00' W 122°13'0 0.0
2015-Apr-29 07:29N 48°00' W 122°13'0 0.0
2015-Apr-29 06:32N 48°00' W 122°13'0 0.0
2015-Apr-29 05:29N 48°00' W 122°13'0 0.0
2015-Apr-29 03:23N 48°00' W 122°13'0 0.0
2015-Apr-29 02:29N 48°00' W 122°13'0 0.0
2015-Apr-29 01:17N 48°00' W 122°13'0 0.0
2015-Apr-29 00:32N 48°00' W 122°13'0 0.0
2015-Apr-28 21:32N 48°00' W 122°13'0 0.0
2015-Apr-28 20:23N 48°00' W 122°13'0 0.0
2015-Apr-28 19:11N 48°00' W 122°13'0 0.0
2015-Apr-28 17:29N 48°00' W 122°13'0 0.0
2015-Apr-28 16:23N 48°00' W 122°13'0 0.0
2015-Apr-28 15:23N 48°00' W 122°13'0 0.0
2015-Apr-28 14:17N 48°00' W 122°13'0 0.0
2015-Apr-28 12:29N 48°00' W 122°13'0 0.0
2015-Apr-28 11:23N 48°00' W 122°13'0 0.0
2015-Apr-28 10:32N 48°00' W 122°13'0 0.0
2015-Apr-28 09:23N 48°00' W 122°13'0 0.0
2015-Apr-28 08:23N 48°00' W 122°13'0 0.0
2015-Apr-28 07:17N 48°00' W 122°13'0 0.0
2015-Apr-28 06:20N 48°00' W 122°13'0 0.0
2015-Apr-28 05:17N 48°00' W 122°13'0 0.0
2015-Apr-28 04:26N 48°00' W 122°13'0 0.0
2015-Apr-28 03:29N 48°00' W 122°13'0 0.0
2015-Apr-28 01:23N 48°00' W 122°13'0 0.0
2015-Apr-28 00:20N 48°00' W 122°13'0 0.0
2015-Apr-27 23:23N 48°00' W 122°13'0 0.0
2015-Apr-27 22:17N 48°00' W 122°13'0 0.0
2015-Apr-27 21:32N 48°00' W 122°13'0 0.0
2015-Apr-27 18:26N 48°00' W 122°13'0 0.0
2015-Apr-27 17:05N 48°00' W 122°13'0 0.0
2015-Apr-27 16:11N 48°00' W 122°13'0 0.0
2015-Apr-27 15:32N 48°00' W 122°13'0 0.0
2015-Apr-27 14:29N 48°00' W 122°13'0 0.0
2015-Apr-27 13:29N 48°00' W 122°13'0 0.0
2015-Apr-27 12:11N 48°00' W 122°13'0 0.0
2015-Apr-27 11:14N 48°00' W 122°13'0 0.0
2015-Apr-27 09:20N 48°00' W 122°13'0 0.0
2015-Apr-27 07:26N 48°00' W 122°13'0 0.0
2015-Apr-27 05:26N 48°00' W 122°13'0 0.0
2015-Apr-27 04:29N 48°00' W 122°13'0 0.0
2015-Apr-27 03:32N 48°00' W 122°13'0 0.0
2015-Apr-27 02:29N 48°00' W 122°13'0 0.0
2015-Apr-27 01:29N 48°00' W 122°13'0 0.0
2015-Apr-27 00:23N 48°00' W 122°13'0 0.0
2015-Apr-26 23:32N 48°00' W 122°13'0 0.0
2015-Apr-26 22:29N 48°00' W 122°13'0 0.0
2015-Apr-26 21:32N 48°00' W 122°13'0 0.0
2015-Apr-26 20:29N 48°00' W 122°13'0 0.0
2015-Apr-26 19:29N 48°00' W 122°13'0 0.0
2015-Apr-26 18:23N 48°00' W 122°13'0 0.0
2015-Apr-26 16:20N 48°00' W 122°13'0 0.0
2015-Apr-26 15:20N 48°00' W 122°13'0 0.0
2015-Apr-26 14:29N 48°00' W 122°13'0 0.0
2015-Apr-26 13:29N 48°00' W 122°13'0 0.0
2015-Apr-26 12:23N 48°00' W 122°13'0 0.0
2015-Apr-26 11:11N 48°00' W 122°13'0 0.0
2015-Apr-26 10:26N 48°00' W 122°13'0 0.0
2015-Apr-26 09:23N 48°00' W 122°13'0 0.0
2015-Apr-26 08:17N 48°00' W 122°13'0 0.0
2015-Apr-26 07:26N 48°00' W 122°13'0 0.0
2015-Apr-26 06:29N 48°00' W 122°13'0 0.0
2015-Apr-26 05:23N 48°00' W 122°13'0 0.0
2015-Apr-26 04:23N 48°00' W 122°13'0 0.0
2015-Apr-26 03:29N 48°00' W 122°13'0 0.0
2015-Apr-26 02:23N 48°00' W 122°13'0 0.0
2015-Apr-26 01:17N 48°00' W 122°13'0 0.0
2015-Apr-26 00:26N 48°00' W 122°13'0 0.0
2015-Apr-25 21:08N 48°00' W 122°13'0 0.0
2015-Apr-25 20:17N 48°00' W 122°13'0 0.0
2015-Apr-25 19:11N 48°00' W 122°13'0 0.0
2015-Apr-25 18:17N 48°00' W 122°13'  
Track history (hours):
 
Tides and Currents Weather Stations Pressure Air Temp Water Temp Dewpoint Dewpoint Depression Visibility Wind Speed Wind Dir Waves Ship Positions

Sea Jay

Owner: Matheson, James K, Everett, WA. More information available from US FCC via Universal Licensing System and Coast Guard Vessel Documentation Center.

Last reported at 2015-May-05 18:12 UTC. Time now 2015-Jul-08 00:02 UTC.
Position N 51°06' W 127°43'.
Warning: this ship's position is months out of date.

Length 21 m.

Type: Pleasure craft. MMSI: 367403070.

Date/timePositionNaut miles runAvg speedWind from/ knotsBaromVisibWave heightAir tempDewpointWater temp
2015-May-05 18:12N 51°06' W 127°43'711.2
2015-May-05 17:33N 51°01' W 127°36'1211.6
2015-May-05 16:33N 50°54' W 127°21'2 2.0
2015-May-05 15:26N 50°54' W 127°17'0 0.0
2015-May-05 14:32N 50°54' W 127°17'0 0.0
2015-May-05 13:32N 50°54' W 127°17'0 0.0
2015-May-05 12:20N 50°54' W 127°17'0 0.0
2015-May-05 11:32N 50°54' W 127°17'0 0.0
2015-May-05 10:26N 50°54' W 127°17'0 0.0
2015-May-05 09:26N 50°54' W 127°17'0 0.0
2015-May-05 08:32N 50°54' W 127°17'0 0.0
2015-May-05 07:32N 50°54' W 127°17'0 0.0
2015-May-05 06:26N 50°54' W 127°17'0 0.0
2015-May-05 05:26N 50°54' W 127°17'0 0.0
2015-May-05 03:20N 50°54' W 127°17'0 0.0
2015-May-05 01:32N 50°54' W 127°17'0 0.0
2015-May-05 00:20N 50°54' W 127°17'0 0.0
2015-May-04 23:20N 50°54' W 127°17'0 0.0
2015-May-04 22:29N 50°54' W 127°17'0 0.0
2015-May-04 21:29N 50°54' W 127°17'82 4.1
2015-May-04 01:28N 50°16' W 125°24'9 9.8
2015-May-04 00:33N 50°07' W 125°21'7 6.5
2015-May-03 23:33N 50°02' W 125°14'0 0.3
2015-May-03 22:31N 50°02' W 125°15'0 0.0
2015-May-03 21:31N 50°02' W 125°15'2 1.8
2015-May-03 20:33N 50°01' W 125°12'5210.0
2015-May-03 15:19N 49°24' W 124°16'64 1.5
2015-May-01 22:06N 48°36' W 123°13'611.0
2015-May-01 21:33N 48°30' W 123°09'41 9.4
2015-May-01 17:09N 47°57' W 122°33'711.2
2015-May-01 16:33N 47°54' W 122°24'10 9.2
2015-May-01 15:30N 48°00' W 122°13'0 0.1
2015-May-01 13:31N 48°00' W 122°13'0 0.0
2015-May-01 12:25N 48°00' W 122°13'0 0.0
2015-May-01 10:31N 48°00' W 122°13'0 0.0
2015-May-01 09:13N 48°00' W 122°13'0 0.0
2015-May-01 08:25N 48°00' W 122°13'0 0.0
2015-May-01 07:13N 48°00' W 122°13'0 0.0
2015-May-01 06:25N 48°00' W 122°13'0 0.0
2015-May-01 04:31N 48°00' W 122°13'0 0.0
2015-May-01 03:25N 48°00' W 122°13'0 0.0
2015-May-01 02:25N 48°00' W 122°13'0 0.0
2015-May-01 01:31N 48°00' W 122°13'0 0.0
2015-May-01 00:25N 48°00' W 122°13'0 0.0
2015-Apr-30 23:07N 48°00' W 122°13'0 0.0
2015-Apr-30 22:13N 48°00' W 122°13'0 0.0
2015-Apr-30 21:25N 48°00' W 122°13'0 0.0
2015-Apr-30 20:28N 48°00' W 122°13'0 0.0
2015-Apr-30 19:31N 48°00' W 122°13'0 0.0
2015-Apr-30 18:28N 48°00' W 122°13'0 0.0
2015-Apr-30 17:04N 48°00' W 122°13'0 0.0
2015-Apr-30 16:33N 48°00' W 122°13'0 0.0
2015-Apr-30 15:11N 48°00' W 122°13'0 0.0
2015-Apr-30 14:17N 48°00' W 122°13'0 0.0
2015-Apr-30 13:29N 48°00' W 122°13'0 0.0
2015-Apr-30 12:17N 48°00' W 122°13'0 0.0
2015-Apr-30 10:17N 48°00' W 122°13'0 0.0
2015-Apr-30 09:29N 48°00' W 122°13'0 0.0
2015-Apr-30 08:23N 48°00' W 122°13'0 0.0
2015-Apr-30 06:29N 48°00' W 122°13'0 0.0
2015-Apr-30 04:17N 48°00' W 122°13'0 0.0
2015-Apr-30 03:29N 48°00' W 122°13'0 0.0
2015-Apr-30 02:11N 48°00' W 122°13'0 0.0
2015-Apr-30 01:29N 48°00' W 122°13'0 0.0
2015-Apr-30 00:23N 48°00' W 122°13'0 0.0
2015-Apr-29 23:26N 48°00' W 122°13'0 0.0
2015-Apr-29 16:26N 48°00' W 122°13'0 0.0
2015-Apr-29 15:20N 48°00' W 122°13'0 0.0
2015-Apr-29 14:29N 48°00' W 122°13'0 0.0
2015-Apr-29 13:08N 48°00' W 122°13'0 0.0
2015-Apr-29 12:23N 48°00' W 122°13'0 0.0
2015-Apr-29 11:29N 48°00' W 122°13'0 0.0
2015-Apr-29 10:26N 48°00' W 122°13'0 0.0
2015-Apr-29 09:29N 48°00' W 122°13'0 0.0
2015-Apr-29 08:14N 48°00' W 122°13'0 0.0
2015-Apr-29 07:29N 48°00' W 122°13'0 0.0
2015-Apr-29 06:32N 48°00' W 122°13'0 0.0
2015-Apr-29 05:29N 48°00' W 122°13'0 0.0
2015-Apr-29 03:23N 48°00' W 122°13'0 0.0
2015-Apr-29 02:29N 48°00' W 122°13'0 0.0
2015-Apr-29 01:17N 48°00' W 122°13'0 0.0
2015-Apr-29 00:32N 48°00' W 122°13'0 0.0
2015-Apr-28 21:32N 48°00' W 122°13'0 0.0
2015-Apr-28 20:23N 48°00' W 122°13'0 0.0
2015-Apr-28 19:11N 48°00' W 122°13'0 0.0
2015-Apr-28 17:29N 48°00' W 122°13'0 0.0
2015-Apr-28 16:23N 48°00' W 122°13'0 0.0
2015-Apr-28 15:23N 48°00' W 122°13'0 0.0
2015-Apr-28 14:17N 48°00' W 122°13'0 0.0
2015-Apr-28 12:29N 48°00' W 122°13'0 0.0
2015-Apr-28 11:23N 48°00' W 122°13'0 0.0
2015-Apr-28 10:32N 48°00' W 122°13'0 0.0
2015-Apr-28 09:23N 48°00' W 122°13'0 0.0
2015-Apr-28 08:23N 48°00' W 122°13'0 0.0
2015-Apr-28 07:17N 48°00' W 122°13'0 0.0
2015-Apr-28 06:20N 48°00' W 122°13'0 0.0
2015-Apr-28 05:17N 48°00' W 122°13'0 0.0
2015-Apr-28 04:26N 48°00' W 122°13'0 0.0
2015-Apr-28 03:29N 48°00' W 122°13'0 0.0
2015-Apr-28 01:23N 48°00' W 122°13'0 0.0
2015-Apr-28 00:20N 48°00' W 122°13'0 0.0
2015-Apr-27 23:23N 48°00' W 122°13'0 0.0
2015-Apr-27 22:17N 48°00' W 122°13'0 0.0
2015-Apr-27 21:32N 48°00' W 122°13'0 0.0
2015-Apr-27 18:26N 48°00' W 122°13'0 0.0
2015-Apr-27 17:05N 48°00' W 122°13'0 0.0
2015-Apr-27 16:11N 48°00' W 122°13'0 0.0
2015-Apr-27 15:32N 48°00' W 122°13'0 0.0
2015-Apr-27 14:29N 48°00' W 122°13'0 0.0
2015-Apr-27 13:29N 48°00' W 122°13'0 0.0
2015-Apr-27 12:11N 48°00' W 122°13'0 0.0
2015-Apr-27 11:14N 48°00' W 122°13'0 0.0
2015-Apr-27 09:20N 48°00' W 122°13'0 0.0
2015-Apr-27 07:26N 48°00' W 122°13'0 0.0
2015-Apr-27 05:26N 48°00' W 122°13'0 0.0
2015-Apr-27 04:29N 48°00' W 122°13'0 0.0
2015-Apr-27 03:32N 48°00' W 122°13'0 0.0
2015-Apr-27 02:29N 48°00' W 122°13'0 0.0
2015-Apr-27 01:29N 48°00' W 122°13'0 0.0
2015-Apr-27 00:23N 48°00' W 122°13'0 0.0
2015-Apr-26 23:32N 48°00' W 122°13'0 0.0
2015-Apr-26 22:29N 48°00' W 122°13'0 0.0
2015-Apr-26 21:32N 48°00' W 122°13'0 0.0
2015-Apr-26 20:29N 48°00' W 122°13'0 0.0
2015-Apr-26 19:29N 48°00' W 122°13'0 0.0
2015-Apr-26 18:23N 48°00' W 122°13'0 0.0
2015-Apr-26 16:20N 48°00' W 122°13'0 0.0
2015-Apr-26 15:20N 48°00' W 122°13'0 0.0
2015-Apr-26 14:29N 48°00' W 122°13'0 0.0
2015-Apr-26 13:29N 48°00' W 122°13'0 0.0
2015-Apr-26 12:23N 48°00' W 122°13'0 0.0
2015-Apr-26 11:11N 48°00' W 122°13'0 0.0
2015-Apr-26 10:26N 48°00' W 122°13'0 0.0
2015-Apr-26 09:23N 48°00' W 122°13'0 0.0
2015-Apr-26 08:17N 48°00' W 122°13'0 0.0
2015-Apr-26 07:26N 48°00' W 122°13'0 0.0
2015-Apr-26 06:29N 48°00' W 122°13'0 0.0
2015-Apr-26 05:23N 48°00' W 122°13'0 0.0
2015-Apr-26 04:23N 48°00' W 122°13'0 0.0
2015-Apr-26 03:29N 48°00' W 122°13'0 0.0
2015-Apr-26 02:23N 48°00' W 122°13'0 0.0
2015-Apr-26 01:17N 48°00' W 122°13'0 0.0
2015-Apr-26 00:26N 48°00' W 122°13'0 0.0
2015-Apr-25 21:08N 48°00' W 122°13'0 0.0
2015-Apr-25 20:17N 48°00' W 122°13'0 0.0
2015-Apr-25 19:11N 48°00' W 122°13'0 0.0
2015-Apr-25 18:17N 48°00' W 122°13'  

Dump ship's entire track history